createdAt,value
2018-02-23T00:00:25.741Z,23.70
2018-02-23T00:00:57.373Z,24.35
2018-02-23T00:01:28.981Z,24.12
2018-02-23T00:02:00.664Z,23.87
2018-02-23T00:02:32.325Z,23.65
2018-02-23T00:03:03.953Z,22.85
2018-02-23T00:03:35.571Z,24.90
2018-02-23T00:04:07.211Z,23.58
2018-02-23T00:04:38.855Z,23.70
2018-02-23T00:05:10.501Z,23.55
2018-02-23T00:05:42.136Z,23.73
2018-02-23T00:06:13.766Z,22.17
2018-02-23T00:06:45.429Z,23.02
2018-02-23T00:07:17.083Z,21.77
2018-02-23T00:07:48.732Z,21.83
2018-02-23T00:08:20.385Z,22.75
2018-02-23T00:08:52.229Z,22.08
2018-02-23T00:09:23.859Z,22.52
2018-02-23T00:09:55.507Z,22.42
2018-02-23T00:10:27.159Z,21.50
2018-02-23T00:10:58.812Z,22.42
2018-02-23T00:11:30.431Z,22.17
2018-02-23T00:12:02.095Z,22.15
2018-02-23T00:12:33.754Z,24.15
2018-02-23T00:13:05.417Z,24.27
2018-02-23T00:13:37.050Z,23.40
2018-02-23T00:14:08.698Z,23.73
2018-02-23T00:14:40.323Z,23.42
2018-02-23T00:15:11.977Z,24.25
2018-02-23T00:15:43.657Z,21.73
2018-02-23T00:16:15.297Z,21.54
2018-02-23T00:16:46.928Z,24.17
2018-02-23T00:17:18.564Z,23.58
2018-02-23T00:17:50.194Z,22.50
2018-02-23T00:18:21.817Z,22.85
2018-02-23T00:18:53.439Z,22.48
2018-02-23T00:19:25.069Z,23.38
2018-02-23T00:19:56.687Z,22.85
2018-02-23T00:20:28.329Z,23.08
2018-02-23T00:20:59.950Z,21.98
2018-02-23T00:21:31.573Z,23.42
2018-02-23T00:22:03.219Z,22.42
2018-02-23T00:22:40.881Z,23.23
2018-02-23T00:23:12.505Z,25.27
2018-02-23T00:23:44.121Z,23.48
2018-02-23T00:24:15.761Z,22.83
2018-02-23T00:24:47.376Z,20.83
2018-02-23T00:25:18.981Z,23.48
2018-02-23T00:25:50.605Z,24.08
2018-02-23T00:26:22.232Z,24.30
2018-02-23T00:26:53.875Z,23.85
2018-02-23T00:27:25.515Z,23.87
2018-02-23T00:27:57.155Z,24.83
2018-02-23T00:28:28.774Z,22.92
2018-02-23T00:29:00.438Z,23.02
2018-02-23T00:29:32.073Z,22.52
2018-02-23T00:30:03.707Z,23.62
2018-02-23T00:30:35.333Z,21.02
2018-02-23T00:31:06.975Z,23.75
2018-02-23T00:31:38.601Z,23.10
2018-02-23T00:32:10.225Z,24.30
2018-02-23T00:32:41.886Z,18.80
2018-02-23T00:33:13.489Z,21.42
2018-02-23T00:33:45.102Z,22.90
2018-02-23T00:34:16.729Z,24.87
2018-02-23T00:34:48.355Z,22.42
2018-02-23T00:35:20.005Z,23.80
2018-02-23T00:35:51.635Z,24.75
2018-02-23T00:36:23.302Z,21.62
2018-02-23T00:36:54.936Z,22.35
2018-02-23T00:37:26.566Z,22.60
2018-02-23T00:37:58.173Z,22.05
2018-02-23T00:38:29.791Z,22.52
2018-02-23T00:39:01.431Z,22.95
2018-02-23T00:39:33.072Z,21.05
2018-02-23T00:40:04.731Z,23.45
2018-02-23T00:40:36.375Z,23.38
2018-02-23T00:41:07.985Z,21.52
2018-02-23T00:41:39.628Z,21.48
2018-02-23T00:42:11.254Z,23.42
2018-02-23T00:42:42.875Z,20.75
2018-02-23T00:43:14.526Z,21.75
2018-02-23T00:43:46.145Z,21.87
2018-02-23T00:44:17.755Z,21.52
2018-02-23T00:44:49.359Z,21.98
2018-02-23T00:45:20.955Z,21.48
2018-02-23T00:45:52.579Z,21.75
2018-02-23T00:46:24.219Z,22.17
2018-02-23T00:46:55.831Z,20.25
2018-02-23T00:47:27.465Z,20.75
2018-02-23T00:47:59.088Z,23.05
2018-02-23T00:48:30.725Z,22.15
2018-02-23T00:49:02.353Z,22.42
2018-02-23T00:49:33.965Z,23.45
2018-02-23T00:50:05.621Z,22.70
2018-02-23T00:50:37.234Z,21.52
2018-02-23T00:51:08.858Z,22.17
2018-02-23T00:51:40.491Z,21.73
2018-02-23T00:52:12.124Z,21.83
2018-02-23T00:52:43.757Z,21.15
2018-02-23T00:53:15.365Z,23.10
2018-02-23T00:53:47.007Z,23.10
2018-02-23T00:54:18.611Z,23.75
2018-02-23T00:54:50.237Z,22.87
2018-02-23T00:55:21.884Z,22.10
2018-02-23T00:55:53.523Z,22.13
2018-02-23T00:56:25.121Z,24.25
2018-02-23T00:56:56.758Z,22.92
2018-02-23T00:57:28.438Z,23.12
2018-02-23T00:58:00.060Z,24.23
2018-02-23T00:58:31.693Z,22.90
2018-02-23T00:59:03.317Z,22.77
2018-02-23T00:59:34.944Z,23.67
2018-02-23T01:00:06.591Z,24.35
2018-02-23T01:00:38.247Z,23.10
2018-02-23T01:01:09.905Z,24.42
2018-02-23T01:01:41.529Z,23.67
2018-02-23T01:02:13.183Z,25.40
2018-02-23T01:02:44.836Z,22.92
2018-02-23T01:03:16.457Z,23.25
2018-02-23T01:03:48.071Z,24.48
2018-02-23T01:04:19.709Z,23.00
2018-02-23T01:04:51.343Z,24.33
2018-02-23T01:05:22.988Z,23.30
2018-02-23T01:05:54.602Z,22.37
2018-02-23T01:06:26.227Z,24.35
2018-02-23T01:06:57.870Z,23.23
2018-02-23T01:07:29.521Z,24.27
2018-02-23T01:08:01.178Z,24.42
2018-02-23T01:08:32.817Z,24.55
2018-02-23T01:09:04.461Z,24.23
2018-02-23T01:09:36.097Z,20.15
2018-02-23T01:10:07.697Z,25.48
2018-02-23T01:10:39.317Z,24.73
2018-02-23T01:11:10.959Z,23.55
2018-02-23T01:11:42.571Z,26.35
2018-02-23T01:12:14.217Z,23.70
2018-02-23T01:12:45.877Z,23.60
2018-02-23T01:13:17.547Z,22.58
2018-02-23T01:13:49.154Z,23.80
2018-02-23T01:14:20.788Z,23.60
2018-02-23T01:14:52.422Z,26.00
2018-02-23T01:15:24.085Z,24.65
2018-02-23T01:15:55.711Z,25.88
2018-02-23T01:16:27.345Z,24.83
2018-02-23T01:16:58.965Z,24.27
2018-02-23T01:17:30.597Z,25.65
2018-02-23T01:18:02.225Z,26.08
2018-02-23T01:18:33.837Z,24.30
2018-02-23T01:19:05.477Z,24.40
2018-02-23T01:19:37.112Z,26.48
2018-02-23T01:20:08.737Z,25.25
2018-02-23T01:20:40.347Z,24.12
2018-02-23T01:21:11.951Z,26.45
2018-02-23T01:21:43.573Z,26.67
2018-02-23T01:22:15.191Z,26.48
2018-02-23T01:22:46.824Z,25.20
2018-02-23T01:23:18.423Z,25.00
2018-02-23T01:23:50.072Z,25.85
2018-02-23T01:24:21.680Z,26.05
2018-02-23T01:24:53.308Z,26.85
2018-02-23T01:25:24.937Z,26.73
2018-02-23T01:25:56.561Z,27.33
2018-02-23T01:26:28.188Z,28.90
2018-02-23T01:26:59.837Z,27.40
2018-02-23T01:27:31.449Z,28.45
2018-02-23T01:28:03.072Z,27.65
2018-02-23T01:28:34.680Z,25.83
2018-02-23T01:29:06.339Z,27.98
2018-02-23T01:29:37.991Z,27.05
2018-02-23T01:30:09.641Z,28.25
2018-02-23T01:30:41.265Z,28.50
2018-02-23T01:31:13.479Z,28.17
2018-02-23T01:31:45.104Z,28.90
2018-02-23T01:32:16.729Z,22.40
2018-02-23T01:32:48.344Z,30.52
2018-02-23T01:33:19.961Z,30.58
2018-02-23T01:33:51.577Z,29.40
2018-02-23T01:34:23.185Z,31.33
2018-02-23T01:34:54.816Z,30.58
2018-02-23T01:35:26.417Z,29.77
2018-02-23T01:35:58.033Z,28.10
2018-02-23T01:36:29.645Z,27.50
2018-02-23T01:37:01.290Z,27.70
2018-02-23T01:37:32.929Z,28.55
2018-02-23T01:38:04.553Z,28.42
2018-02-23T01:38:36.189Z,29.80
2018-02-23T01:39:07.823Z,29.08
2018-02-23T01:39:39.446Z,29.17
2018-02-23T01:40:11.054Z,31.55
2018-02-23T01:40:42.676Z,28.65
2018-02-23T01:41:14.301Z,28.35
2018-02-23T01:41:45.977Z,30.70
2018-02-23T01:42:17.607Z,29.55
2018-02-23T01:42:49.235Z,29.42
2018-02-23T01:43:20.853Z,27.98
2018-02-23T01:43:52.495Z,30.92
2018-02-23T01:44:24.132Z,28.00
2018-02-23T01:44:55.758Z,29.30
2018-02-23T01:45:27.381Z,27.25
2018-02-23T01:45:59.025Z,31.02
2018-02-23T01:46:30.655Z,29.08
2018-02-23T01:47:02.247Z,31.12
2018-02-23T01:47:33.881Z,27.98
2018-02-23T01:48:05.511Z,31.60
2018-02-23T01:48:37.145Z,29.92
2018-02-23T01:49:08.753Z,28.00
2018-02-23T01:49:40.384Z,28.20
2018-02-23T01:50:12.020Z,28.22
2018-02-23T01:50:59.013Z,29.35
2018-02-23T01:51:30.615Z,28.62
2018-02-23T01:52:02.249Z,26.00
2018-02-23T01:52:33.876Z,26.58
2018-02-23T01:53:05.504Z,25.45
2018-02-23T01:53:37.107Z,25.88
2018-02-23T01:54:08.913Z,25.08
2018-02-23T01:54:40.545Z,25.62
2018-02-23T01:55:12.165Z,26.08
2018-02-23T01:55:43.781Z,25.60
2018-02-23T01:56:15.405Z,25.73
2018-02-23T01:56:47.019Z,23.33
2018-02-23T01:57:18.665Z,24.12
2018-02-23T01:57:50.310Z,24.60
2018-02-23T01:58:21.973Z,26.05
2018-02-23T01:58:53.613Z,23.92
2018-02-23T01:59:25.219Z,26.17
2018-02-23T01:59:56.881Z,25.02
2018-02-23T02:00:28.545Z,26.92
2018-02-23T02:01:00.176Z,24.08
2018-02-23T02:01:31.827Z,25.15
2018-02-23T02:02:03.454Z,24.92
2018-02-23T02:02:35.087Z,25.88
2018-02-23T02:03:06.710Z,25.65
2018-02-23T02:03:38.397Z,24.55
2018-02-23T02:04:10.343Z,25.02
2018-02-23T02:04:41.979Z,25.05
2018-02-23T02:05:13.571Z,26.85
2018-02-23T02:05:45.189Z,25.58
2018-02-23T02:06:16.828Z,26.12
2018-02-23T02:06:48.485Z,25.60
2018-02-23T02:07:20.102Z,25.02
2018-02-23T02:07:51.725Z,26.92
2018-02-23T02:08:23.351Z,25.98
2018-02-23T02:08:54.965Z,24.65
2018-02-23T02:09:26.627Z,26.90
2018-02-23T02:09:58.251Z,25.00
2018-02-23T02:10:29.889Z,26.20
2018-02-23T02:11:01.517Z,26.37
2018-02-23T02:11:33.139Z,27.40
2018-02-23T02:12:04.777Z,27.92
2018-02-23T02:12:36.417Z,27.08
2018-02-23T02:13:08.051Z,27.92
2018-02-23T02:13:39.659Z,27.05
2018-02-23T02:14:11.289Z,29.17
2018-02-23T02:14:42.905Z,26.48
2018-02-23T02:15:14.547Z,27.95
2018-02-23T02:15:46.195Z,25.88
2018-02-23T02:16:17.862Z,26.75
2018-02-23T02:16:49.484Z,27.17
2018-02-23T02:17:21.117Z,27.00
2018-02-23T02:17:52.757Z,27.77
2018-02-23T02:18:24.391Z,28.48
2018-02-23T02:18:56.017Z,28.25
2018-02-23T02:19:27.663Z,29.23
2018-02-23T02:19:59.319Z,28.33
2018-02-23T02:20:30.973Z,28.67
2018-02-23T02:21:02.616Z,26.98
2018-02-23T02:21:34.339Z,29.17
2018-02-23T02:22:05.952Z,27.83
2018-02-23T02:22:37.614Z,26.75
2018-02-23T02:23:09.261Z,28.08
2018-02-23T02:23:40.885Z,28.23
2018-02-23T02:24:12.545Z,27.95
2018-02-23T02:24:44.218Z,25.40
2018-02-23T02:25:15.810Z,27.17
2018-02-23T02:25:47.422Z,29.25
2018-02-23T02:26:19.053Z,33.25
2018-02-23T02:26:50.701Z,30.00
2018-02-23T02:27:22.309Z,30.45
2018-02-23T02:27:53.921Z,28.96
2018-02-23T02:28:25.549Z,30.40
2018-02-23T02:28:57.230Z,30.65
2018-02-23T02:29:28.893Z,28.62
2018-02-23T02:30:00.542Z,30.45
2018-02-23T02:30:32.199Z,29.33
2018-02-23T02:31:03.854Z,30.35
2018-02-23T02:31:35.496Z,30.40
2018-02-23T02:32:07.125Z,29.35
2018-02-23T02:32:38.747Z,29.35
2018-02-23T02:33:10.395Z,28.90
2018-02-23T02:33:42.036Z,33.53
2018-02-23T02:34:13.683Z,30.80
2018-02-23T02:34:45.311Z,32.90
2018-02-23T02:35:16.953Z,30.02
2018-02-23T02:35:48.557Z,32.53
2018-02-23T02:36:20.211Z,32.33
2018-02-23T02:36:51.867Z,33.53
2018-02-23T02:37:23.503Z,30.83
2018-02-23T02:37:55.123Z,30.67
2018-02-23T02:38:26.770Z,30.65
2018-02-23T02:38:58.400Z,31.15
2018-02-23T02:39:30.015Z,31.25
2018-02-23T02:40:01.654Z,30.20
2018-02-23T02:40:33.298Z,30.65
2018-02-23T02:41:04.929Z,28.15
2018-02-23T02:41:36.561Z,28.50
2018-02-23T02:42:08.200Z,28.42
2018-02-23T02:42:39.817Z,30.10
2018-02-23T02:43:11.433Z,30.23
2018-02-23T02:43:43.050Z,27.37
2018-02-23T02:44:14.717Z,29.98
2018-02-23T02:44:46.393Z,29.35
2018-02-23T02:45:18.000Z,29.77
2018-02-23T02:45:49.611Z,28.20
2018-02-23T02:46:21.230Z,28.55
2018-02-23T02:46:52.864Z,28.65
2018-02-23T02:47:24.468Z,28.48
2018-02-23T02:47:56.089Z,31.12
2018-02-23T02:48:27.721Z,31.20
2018-02-23T02:48:59.325Z,30.67
2018-02-23T02:49:30.937Z,29.00
2018-02-23T02:50:02.603Z,29.10
2018-02-23T02:50:34.225Z,27.33
2018-02-23T02:51:05.854Z,29.95
2018-02-23T02:51:37.566Z,29.33
2018-02-23T02:52:09.508Z,28.67
2018-02-23T02:52:41.126Z,32.17
2018-02-23T02:53:12.765Z,30.90
2018-02-23T02:53:44.429Z,31.95
2018-02-23T02:54:16.045Z,30.37
2018-02-23T02:54:47.671Z,29.60
2018-02-23T02:55:19.289Z,30.25
2018-02-23T02:55:50.919Z,30.23
2018-02-23T02:56:22.558Z,29.87
2018-02-23T02:56:54.174Z,30.52
2018-02-23T02:57:25.789Z,30.00
2018-02-23T02:57:57.412Z,29.08
2018-02-23T02:58:29.043Z,28.73
2018-02-23T02:59:00.681Z,29.92
2018-02-23T02:59:32.285Z,28.35
2018-02-23T03:00:03.977Z,27.42
2018-02-23T03:00:35.633Z,26.58
2018-02-23T03:01:07.253Z,27.87
2018-02-23T03:01:38.913Z,30.60
2018-02-23T03:02:10.578Z,29.23
2018-02-23T03:02:42.220Z,28.90
2018-02-23T03:03:13.848Z,29.48
2018-02-23T03:03:45.527Z,28.62
2018-02-23T03:04:17.161Z,28.42
2018-02-23T03:04:48.796Z,29.33
2018-02-23T03:05:20.407Z,29.10
2018-02-23T03:05:52.024Z,30.08
2018-02-23T03:06:23.639Z,29.77
2018-02-23T03:06:55.259Z,28.40
2018-02-23T03:07:26.869Z,29.20
2018-02-23T03:07:58.508Z,27.20
2018-02-23T03:08:30.141Z,28.45
2018-02-23T03:09:01.772Z,29.55
2018-02-23T03:09:33.399Z,29.80
2018-02-23T03:10:05.023Z,30.30
2018-02-23T03:10:36.641Z,27.70
2018-02-23T03:11:08.285Z,28.27
2018-02-23T03:11:39.941Z,29.40
2018-02-23T03:12:11.577Z,31.75
2018-02-23T03:12:43.208Z,28.65
2018-02-23T03:13:14.809Z,29.83
2018-02-23T03:13:46.408Z,28.55
2018-02-23T03:14:18.025Z,30.17
2018-02-23T03:14:49.651Z,28.58
2018-02-23T03:15:21.263Z,28.05
2018-02-23T03:15:52.863Z,29.42
2018-02-23T03:16:24.493Z,29.55
2018-02-23T03:16:56.117Z,29.92
2018-02-23T03:17:27.747Z,31.37
2018-02-23T03:17:59.365Z,30.73
2018-02-23T03:18:30.990Z,29.63
2018-02-23T03:19:02.627Z,28.50
2018-02-23T03:19:34.232Z,31.70
2018-02-23T03:20:05.853Z,29.17
2018-02-23T03:20:37.477Z,29.30
2018-02-23T03:21:09.128Z,28.40
2018-02-23T03:21:40.737Z,30.80
2018-02-23T03:22:12.359Z,31.10
2018-02-23T03:22:43.986Z,30.90
2018-02-23T03:23:15.599Z,29.75
2018-02-23T03:23:47.229Z,29.35
2018-02-23T03:24:18.851Z,31.05
2018-02-23T03:24:50.521Z,28.95
2018-02-23T03:25:22.165Z,28.50
2018-02-23T03:25:53.787Z,30.33
2018-02-23T03:26:25.419Z,30.42
2018-02-23T03:26:57.053Z,32.25
2018-02-23T03:27:28.702Z,30.37
2018-02-23T03:28:00.326Z,29.02
2018-02-23T03:28:31.925Z,31.10
2018-02-23T03:29:03.563Z,29.67
2018-02-23T03:29:35.162Z,29.87
2018-02-23T03:30:06.806Z,30.17
2018-02-23T03:30:38.418Z,30.17
2018-02-23T03:31:10.055Z,29.73
2018-02-23T03:31:41.683Z,29.92
2018-02-23T03:32:13.288Z,29.77
2018-02-23T03:32:44.912Z,30.62
2018-02-23T03:33:16.521Z,28.55
2018-02-23T03:33:48.145Z,28.45
2018-02-23T03:34:19.761Z,29.37
2018-02-23T03:34:51.369Z,29.15
2018-02-23T03:35:23.001Z,29.30
2018-02-23T03:35:54.621Z,30.50
2018-02-23T03:36:26.241Z,31.33
2018-02-23T03:36:57.885Z,29.15
2018-02-23T03:37:29.553Z,29.98
2018-02-23T03:38:01.191Z,29.73
2018-02-23T03:38:32.824Z,30.37
2018-02-23T03:39:04.501Z,33.30
2018-02-23T03:39:36.118Z,32.28
2018-02-23T03:40:07.733Z,30.30
2018-02-23T03:40:39.360Z,31.15
2018-02-23T03:41:10.980Z,32.97
2018-02-23T03:41:42.589Z,31.42
2018-02-23T03:42:14.201Z,33.13
2018-02-23T03:42:45.823Z,23.02
2018-02-23T03:43:17.471Z,35.38
2018-02-23T03:43:49.071Z,32.42
2018-02-23T03:44:20.679Z,32.25
2018-02-23T03:44:52.314Z,33.83
2018-02-23T03:45:23.929Z,32.60
2018-02-23T03:45:55.568Z,30.30
2018-02-23T03:46:27.202Z,31.60
2018-02-23T03:46:58.825Z,29.45
2018-02-23T03:47:30.462Z,29.87
2018-02-23T03:48:02.094Z,32.00
2018-02-23T03:48:33.711Z,29.25
2018-02-23T03:49:05.321Z,28.50
2018-02-23T03:49:36.955Z,29.08
2018-02-23T03:50:08.581Z,28.52
2018-02-23T03:50:40.199Z,29.42
2018-02-23T03:51:11.824Z,31.45
2018-02-23T03:51:43.429Z,29.83
2018-02-23T03:52:15.075Z,32.38
2018-02-23T03:52:46.685Z,31.60
2018-02-23T03:53:18.316Z,30.75
2018-02-23T03:53:49.961Z,30.98
2018-02-23T03:54:21.637Z,29.83
2018-02-23T03:54:53.279Z,30.12
2018-02-23T03:55:24.926Z,29.25
2018-02-23T03:55:56.565Z,28.92
2018-02-23T03:56:28.205Z,29.52
2018-02-23T03:56:59.813Z,30.52
2018-02-23T03:57:31.446Z,31.40
2018-02-23T03:58:03.094Z,29.87
2018-02-23T03:58:34.717Z,29.90
2018-02-23T03:59:06.377Z,31.77
2018-02-23T03:59:38.005Z,31.80
2018-02-23T04:00:09.633Z,31.58
2018-02-23T04:00:41.260Z,30.52
2018-02-23T04:01:13.023Z,29.73
2018-02-23T04:01:44.640Z,32.13
2018-02-23T04:02:16.247Z,34.00
2018-02-23T04:02:47.885Z,30.77
2018-02-23T04:03:19.529Z,31.42
2018-02-23T04:03:51.148Z,29.50
2018-02-23T04:04:22.790Z,31.00
2018-02-23T04:04:54.419Z,31.05
2018-02-23T04:05:26.043Z,31.35
2018-02-23T04:05:57.652Z,32.33
2018-02-23T04:06:29.294Z,32.03
2018-02-23T04:07:00.914Z,30.73
2018-02-23T04:07:32.547Z,29.87
2018-02-23T04:08:04.172Z,31.02
2018-02-23T04:08:35.793Z,31.95
2018-02-23T04:09:07.417Z,30.27
2018-02-23T04:09:39.045Z,29.55
2018-02-23T04:10:10.653Z,30.27
2018-02-23T04:10:42.279Z,31.73
2018-02-23T04:11:13.896Z,29.42
2018-02-23T04:11:45.523Z,31.15
2018-02-23T04:12:17.181Z,30.62
2018-02-23T04:12:48.818Z,30.65
2018-02-23T04:13:20.445Z,32.33
2018-02-23T04:13:52.077Z,28.67
2018-02-23T04:14:23.707Z,33.08
2018-02-23T04:14:55.335Z,30.58
2018-02-23T04:15:26.964Z,30.70
2018-02-23T04:15:58.590Z,31.23
2018-02-23T04:16:30.213Z,31.20
2018-02-23T04:17:01.823Z,30.55
2018-02-23T04:17:33.448Z,32.95
2018-02-23T04:18:05.055Z,30.45
2018-02-23T04:18:36.680Z,28.23
2018-02-23T04:19:08.289Z,29.70
2018-02-23T04:19:39.905Z,30.08
2018-02-23T04:20:11.541Z,29.87
2018-02-23T04:20:43.152Z,28.70
2018-02-23T04:21:14.771Z,31.90
2018-02-23T04:21:46.401Z,31.42
2018-02-23T04:22:18.033Z,32.22
2018-02-23T04:22:49.683Z,30.98
2018-02-23T04:23:21.333Z,31.50
2018-02-23T04:23:52.964Z,30.58
2018-02-23T04:24:24.593Z,32.03
2018-02-23T04:24:56.220Z,31.00
2018-02-23T04:25:27.866Z,32.13
2018-02-23T04:25:59.493Z,31.17
2018-02-23T04:26:31.131Z,30.23
2018-02-23T04:27:02.762Z,30.67
2018-02-23T04:27:34.369Z,31.15
2018-02-23T04:28:06.017Z,29.87
2018-02-23T04:28:37.653Z,29.83
2018-02-23T04:29:09.269Z,32.08
2018-02-23T04:29:40.894Z,31.92
2018-02-23T04:30:12.513Z,29.10
2018-02-23T04:30:44.134Z,27.52
2018-02-23T04:31:15.759Z,31.35
2018-02-23T04:31:47.372Z,31.80
2018-02-23T04:32:18.982Z,32.03
2018-02-23T04:32:50.621Z,33.40
2018-02-23T04:33:22.245Z,31.77
2018-02-23T04:33:53.873Z,30.55
2018-02-23T04:34:25.530Z,28.50
2018-02-23T04:34:57.157Z,30.65
2018-02-23T04:35:28.773Z,29.67
2018-02-23T04:36:00.409Z,27.40
2018-02-23T04:36:32.022Z,30.02
2018-02-23T04:37:03.641Z,25.00
2018-02-23T04:37:35.280Z,32.88
2018-02-23T04:38:06.917Z,31.90
2018-02-23T04:38:38.528Z,31.85
2018-02-23T04:39:10.138Z,32.33
2018-02-23T04:39:41.777Z,31.30
2018-02-23T04:40:13.411Z,31.02
2018-02-23T04:40:45.029Z,31.08
2018-02-23T04:41:16.661Z,31.05
2018-02-23T04:41:48.274Z,30.58
2018-02-23T04:42:19.880Z,33.13
2018-02-23T04:42:51.469Z,32.38
2018-02-23T04:43:23.142Z,30.70
2018-02-23T04:43:54.761Z,31.52
2018-02-23T04:44:26.378Z,35.17
2018-02-23T04:44:58.033Z,31.73
2018-02-23T04:45:29.650Z,32.42
2018-02-23T04:46:01.292Z,37.78
2018-02-23T04:46:32.905Z,34.58
2018-02-23T04:47:04.522Z,30.35
2018-02-23T04:47:36.136Z,32.20
2018-02-23T04:48:07.749Z,29.42
2018-02-23T04:48:39.384Z,31.27
2018-02-23T04:49:11.039Z,31.73
2018-02-23T04:49:42.658Z,31.65
2018-02-23T04:50:14.277Z,34.05
2018-02-23T04:50:45.904Z,33.28
2018-02-23T04:51:17.560Z,39.85
2018-02-23T04:51:49.179Z,33.20
2018-02-23T04:52:20.801Z,31.77
2018-02-23T04:52:52.434Z,32.85
2018-02-23T04:53:24.057Z,33.72
2018-02-23T04:53:55.676Z,31.50
2018-02-23T04:54:27.301Z,30.33
2018-02-23T04:54:58.904Z,30.60
2018-02-23T04:55:30.509Z,31.33
2018-02-23T04:56:02.152Z,31.98
2018-02-23T04:56:33.770Z,29.27
2018-02-23T04:57:05.392Z,29.73
2018-02-23T04:57:37.003Z,32.90
2018-02-23T04:58:08.649Z,31.05
2018-02-23T04:58:40.256Z,33.30
2018-02-23T04:59:11.880Z,32.08
2018-02-23T04:59:43.503Z,31.58
2018-02-23T05:00:15.135Z,31.08
2018-02-23T05:00:46.819Z,33.13
2018-02-23T05:01:18.443Z,31.52
2018-02-23T05:01:50.101Z,31.25
2018-02-23T05:02:21.703Z,31.30
2018-02-23T05:02:53.397Z,31.23
2018-02-23T05:03:25.048Z,33.47
2018-02-23T05:03:56.673Z,30.75
2018-02-23T05:04:28.301Z,29.70
2018-02-23T05:04:59.933Z,37.05
2018-02-23T05:05:31.578Z,32.15
2018-02-23T05:06:03.199Z,31.42
2018-02-23T05:06:34.813Z,34.50
2018-02-23T05:07:06.450Z,33.28
2018-02-23T05:07:38.070Z,30.80
2018-02-23T05:08:09.694Z,30.70
2018-02-23T05:08:41.290Z,39.63
2018-02-23T05:09:12.913Z,34.22
2018-02-23T05:09:44.563Z,32.67
2018-02-23T05:10:16.193Z,31.10
2018-02-23T05:10:47.843Z,32.53
2018-02-23T05:11:19.477Z,33.20
2018-02-23T05:11:51.113Z,33.13
2018-02-23T05:12:22.775Z,31.45
2018-02-23T05:12:54.442Z,33.30
2018-02-23T05:13:26.087Z,32.80
2018-02-23T05:13:57.695Z,29.45
2018-02-23T05:14:29.305Z,35.17
2018-02-23T05:15:00.939Z,34.05
2018-02-23T05:15:32.565Z,32.38
2018-02-23T05:16:10.408Z,32.28
2018-02-23T05:16:42.033Z,33.78
2018-02-23T05:17:13.674Z,32.40
2018-02-23T05:17:45.296Z,33.15
2018-02-23T05:18:16.937Z,34.46
2018-02-23T05:18:48.596Z,30.88
2018-02-23T05:19:20.245Z,32.25
2018-02-23T05:19:51.866Z,31.42
2018-02-23T05:20:23.487Z,32.83
2018-02-23T05:20:55.121Z,36.00
2018-02-23T05:21:26.763Z,31.95
2018-02-23T05:21:58.417Z,31.52
2018-02-23T05:22:30.075Z,31.08
2018-02-23T05:23:01.697Z,29.25
2018-02-23T05:23:33.310Z,35.35
2018-02-23T05:24:04.941Z,36.08
2018-02-23T05:24:36.588Z,32.75
2018-02-23T05:25:08.243Z,29.90
2018-02-23T05:25:39.884Z,32.13
2018-02-23T05:26:11.561Z,36.25
2018-02-23T05:26:43.175Z,33.17
2018-02-23T05:27:14.803Z,31.67
2018-02-23T05:27:46.412Z,33.20
2018-02-23T05:28:18.080Z,31.37
2018-02-23T05:28:49.764Z,31.27
2018-02-23T05:29:21.396Z,30.98
2018-02-23T05:29:53.031Z,31.67
2018-02-23T05:30:24.671Z,30.85
2018-02-23T05:30:56.338Z,31.10
2018-02-23T05:31:27.986Z,29.20
2018-02-23T05:31:59.614Z,30.75
2018-02-23T05:32:31.258Z,31.30
2018-02-23T05:33:02.885Z,33.10
2018-02-23T05:33:34.515Z,31.75
2018-02-23T05:34:06.163Z,29.17
2018-02-23T05:34:37.795Z,35.40
2018-02-23T05:35:09.423Z,32.35
2018-02-23T05:35:41.088Z,28.67
2018-02-23T05:36:12.722Z,32.63
2018-02-23T05:36:44.697Z,34.85
2018-02-23T05:37:16.328Z,30.30
2018-02-23T05:37:47.962Z,29.52
2018-02-23T05:38:19.630Z,30.02
2018-02-23T05:38:51.290Z,32.08
2018-02-23T05:39:22.914Z,30.17
2018-02-23T05:39:54.523Z,29.20
2018-02-23T05:40:26.165Z,29.65
2018-02-23T05:40:57.788Z,28.50
2018-02-23T05:41:29.387Z,29.35
2018-02-23T05:42:01.020Z,27.13
2018-02-23T05:42:32.638Z,31.42
2018-02-23T05:43:04.258Z,30.02
2018-02-23T05:43:35.890Z,30.83
2018-02-23T05:44:07.507Z,33.15
2018-02-23T05:44:39.145Z,31.50
2018-02-23T05:45:10.778Z,31.60
2018-02-23T05:45:42.423Z,33.70
2018-02-23T05:46:14.071Z,31.42
2018-02-23T05:46:45.722Z,30.85
2018-02-23T05:47:17.361Z,28.90
2018-02-23T05:47:48.996Z,29.67
2018-02-23T05:48:20.616Z,29.45
2018-02-23T05:48:52.241Z,30.35
2018-02-23T05:49:23.853Z,34.53
2018-02-23T05:49:55.481Z,29.73
2018-02-23T05:50:27.095Z,31.80
2018-02-23T05:50:58.696Z,30.17
2018-02-23T05:51:30.320Z,30.45
2018-02-23T05:52:01.935Z,29.75
2018-02-23T05:52:33.573Z,30.58
2018-02-23T05:53:05.192Z,31.35
2018-02-23T05:53:36.802Z,30.90
2018-02-23T05:54:08.464Z,28.30
2018-02-23T05:54:40.085Z,30.55
2018-02-23T05:55:26.633Z,31.27
2018-02-23T05:55:58.276Z,29.75
2018-02-23T05:56:29.892Z,29.25
2018-02-23T05:57:01.527Z,31.05
2018-02-23T05:57:33.136Z,30.62
2018-02-23T05:58:04.793Z,24.77
2018-02-23T05:58:36.430Z,29.65
2018-02-23T05:59:08.060Z,33.17
2018-02-23T05:59:39.667Z,37.55
2018-02-23T06:00:11.280Z,32.58
2018-02-23T06:00:42.933Z,30.02
2018-02-23T06:01:14.553Z,27.02
2018-02-23T06:01:46.175Z,25.95
2018-02-23T06:02:17.817Z,30.45
2018-02-23T06:02:49.420Z,29.73
2018-02-23T06:03:21.077Z,29.33
2018-02-23T06:03:52.681Z,29.77
2018-02-23T06:04:24.286Z,30.05
2018-02-23T06:04:55.924Z,30.50
2018-02-23T06:05:27.545Z,27.45
2018-02-23T06:05:59.160Z,31.55
2018-02-23T06:06:30.781Z,29.63
2018-02-23T06:07:02.420Z,28.40
2018-02-23T06:07:34.033Z,28.42
2018-02-23T06:08:05.669Z,30.67
2018-02-23T06:08:37.326Z,29.30
2018-02-23T06:09:08.976Z,30.52
2018-02-23T06:09:40.594Z,30.17
2018-02-23T06:10:12.221Z,30.52
2018-02-23T06:10:43.863Z,31.37
2018-02-23T06:11:15.495Z,30.55
2018-02-23T06:11:47.139Z,33.50
2018-02-23T06:12:18.744Z,33.45
2018-02-23T06:12:50.352Z,33.00
2018-02-23T06:13:21.964Z,32.55
2018-02-23T06:13:53.616Z,28.87
2018-02-23T06:14:25.218Z,31.80
2018-02-23T06:14:56.852Z,32.47
2018-02-23T06:15:34.598Z,32.00
2018-02-23T06:16:12.281Z,28.98
2018-02-23T06:16:43.901Z,34.85
2018-02-23T06:17:21.736Z,27.58
2018-02-23T06:17:59.549Z,33.03
2018-02-23T06:18:37.332Z,32.15
2018-02-23T06:19:08.985Z,31.30
2018-02-23T06:19:46.926Z,32.58
2018-02-23T06:20:24.771Z,28.80
2018-02-23T06:20:56.406Z,30.98
2018-02-23T06:21:28.017Z,28.95
2018-02-23T06:21:59.624Z,29.58
2018-02-23T06:22:31.233Z,27.98
2018-02-23T06:23:02.869Z,30.58
2018-02-23T06:23:34.511Z,33.85
2018-02-23T06:24:06.104Z,29.05
2018-02-23T06:24:37.745Z,29.85
2018-02-23T06:25:09.355Z,27.55
2018-02-23T06:25:40.985Z,27.35
2018-02-23T06:26:12.616Z,28.87
2018-02-23T06:26:44.242Z,29.63
2018-02-23T06:27:15.870Z,27.30
2018-02-23T06:27:47.491Z,26.30
2018-02-23T06:28:19.121Z,26.70
2018-02-23T06:28:50.750Z,28.70
2018-02-23T06:29:22.384Z,26.52
2018-02-23T06:29:54.008Z,24.77
2018-02-23T06:30:25.617Z,28.33
2018-02-23T06:30:57.245Z,26.75
2018-02-23T06:31:28.859Z,26.60
2018-02-23T06:32:00.507Z,30.88
2018-02-23T06:32:32.117Z,31.40
2018-02-23T06:33:03.748Z,29.17
2018-02-23T06:33:35.375Z,26.17
2018-02-23T06:34:07.009Z,26.33
2018-02-23T06:34:38.628Z,26.73
2018-02-23T06:35:10.262Z,29.40
2018-02-23T06:35:41.855Z,26.90
2018-02-23T06:36:13.471Z,26.05
2018-02-23T06:36:45.102Z,25.20
2018-02-23T06:37:16.722Z,27.17
2018-02-23T06:37:48.364Z,31.00
2018-02-23T06:38:19.992Z,28.20
2018-02-23T06:38:51.632Z,26.67
2018-02-23T06:39:23.251Z,26.30
2018-02-23T06:39:54.876Z,27.40
2018-02-23T06:40:26.505Z,25.48
2018-02-23T06:40:58.120Z,24.75
2018-02-23T06:41:29.717Z,26.87
2018-02-23T06:42:01.344Z,24.42
2018-02-23T06:42:32.973Z,28.87
2018-02-23T06:43:04.596Z,24.50
2018-02-23T06:43:36.247Z,27.15
2018-02-23T06:44:07.876Z,29.30
2018-02-23T06:44:39.509Z,27.30
2018-02-23T06:45:11.133Z,24.90
2018-02-23T06:45:42.804Z,29.27
2018-02-23T06:46:14.434Z,32.20
2018-02-23T06:46:46.090Z,27.08
2018-02-23T06:47:17.714Z,26.98
2018-02-23T06:47:49.324Z,27.70
2018-02-23T06:48:20.949Z,27.80
2018-02-23T06:48:52.576Z,22.98